Time;durP1;ratioP1;P1;durP2;ratioP2;P2;SDS_P1;SDS_P2;PMS_P1;PMS_P2;Temp;Humidity;BMP_temperature;BMP_pressure;BME280_temperature;BME280_humidity;BME280_pressure;Samples;Min_cycle;Max_cycle;Signal;HPM_P1;HPM_P2
2021/06/29 00:01:16;;;;;;;10.48;7.53;;;;;;;23.52;93.99;100584.31;4953230;29;20035;-71
2021/06/29 00:03:41;;;;;;;10.43;7.40;;;;;;;23.54;94.33;100579.13;4931498;29;20397;-71
2021/06/29 00:06:07;;;;;;;9.23;7.03;;;;;;;23.60;93.57;100582.84;4951813;29;20506;-71
2021/06/29 00:08:32;;;;;;;9.75;8.00;;;;;;;23.56;94.09;100576.69;4952608;29;20023;-70
2021/06/29 00:10:58;;;;;;;11.30;7.45;;;;;;;23.58;93.98;100579.00;4949610;29;20402;-71
2021/06/29 00:13:23;;;;;;;11.98;7.75;;;;;;;23.56;94.22;100568.44;4952464;29;20094;-71
2021/06/29 00:15:49;;;;;;;9.85;7.45;;;;;;;23.58;94.08;100577.03;4934830;29;20110;-71
2021/06/29 00:18:15;;;;;;;8.98;7.70;;;;;;;23.62;93.94;100574.16;4948336;29;20386;-71
2021/06/29 00:20:41;;;;;;;10.15;7.40;;;;;;;23.64;93.87;100574.47;4952891;29;20110;-71
2021/06/29 00:23:07;;;;;;;10.90;7.65;;;;;;;23.64;93.74;100572.50;4952413;29;20134;-71
2021/06/29 00:25:33;;;;;;;8.65;7.25;;;;;;;23.60;93.69;100568.31;4947047;29;20045;-71
2021/06/29 00:27:58;;;;;;;11.13;7.47;;;;;;;23.57;94.00;100569.22;4952158;29;20077;-70
2021/06/29 00:30:24;;;;;;;8.70;7.45;;;;;;;23.59;94.05;100577.81;4945606;29;20055;-71
2021/06/29 00:32:50;;;;;;;10.52;7.57;;;;;;;23.56;94.34;100575.94;4934546;29;20071;-71
2021/06/29 00:35:15;;;;;;;10.63;7.32;;;;;;;23.50;94.08;100574.97;4950076;29;20035;-71
2021/06/29 00:37:43;;;;;;;13.88;7.65;;;;;;;23.50;93.94;100583.22;4919632;29;20039;-71
2021/06/29 00:40:11;;;;;;;7.82;7.03;;;;;;;23.56;94.11;100578.69;4951328;29;20067;-71
2021/06/29 00:42:37;;;;;;;13.93;7.90;;;;;;;23.52;93.77;100581.56;4933077;29;20031;-71
2021/06/29 00:45:04;;;;;;;9.27;7.45;;;;;;;23.49;93.71;100587.97;4934071;29;20039;-71
2021/06/29 00:47:30;;;;;;;10.70;7.50;;;;;;;23.42;94.14;100579.19;4952411;29;20026;-71
2021/06/29 00:49:56;;;;;;;12.60;7.82;;;;;;;23.40;94.56;100576.88;4946938;28;20027;-70
2021/06/29 00:52:22;;;;;;;10.43;7.53;;;;;;;23.36;94.31;100578.97;4952018;29;20582;-71
2021/06/29 00:54:49;;;;;;;11.55;8.07;;;;;;;23.30;94.84;100584.25;4934092;29;20035;-70
2021/06/29 00:57:15;;;;;;;11.13;8.00;;;;;;;23.33;94.32;100588.09;4948351;29;20047;-71
2021/06/29 00:59:41;;;;;;;13.68;7.78;;;;;;;23.28;94.86;100586.66;4949800;29;20031;-71
2021/06/29 01:02:08;;;;;;;8.85;7.55;;;;;;;23.21;95.32;100586.88;4950196;29;20039;-70
2021/06/29 01:04:35;;;;;;;10.02;7.60;;;;;;;23.21;95.06;100586.88;4949505;29;20029;-71
2021/06/29 01:07:01;;;;;;;11.70;8.13;;;;;;;23.25;94.98;100578.50;4951679;29;20039;-71
2021/06/29 01:09:27;;;;;;;11.55;8.20;;;;;;;23.17;95.02;100572.47;4948572;29;20544;-71
2021/06/29 01:11:53;;;;;;;10.63;7.68;;;;;;;23.03;95.44;100572.97;4946198;29;20046;-70
2021/06/29 01:14:18;;;;;;;10.18;7.57;;;;;;;22.95;96.33;100573.63;4947652;29;21174;-71
2021/06/29 01:16:44;;;;;;;10.65;7.68;;;;;;;22.89;96.29;100567.13;4949854;29;20555;-71
2021/06/29 01:19:11;;;;;;;10.90;8.23;;;;;;;22.83;96.43;100564.16;4951401;29;20035;-71
2021/06/29 01:21:41;;;;;;;10.80;8.13;;;;;;;22.76;97.29;100563.63;4951961;29;20494;-71
2021/06/29 01:24:14;;;;;;;11.60;7.85;;;;;;;22.78;97.31;100572.97;4950758;29;20046;-71
2021/06/29 01:26:49;;;;;;;9.60;8.35;;;;;;;22.82;97.33;100567.38;4944928;29;20039;-71
2021/06/29 01:29:14;;;;;;;10.85;8.10;;;;;;;22.77;97.59;100571.41;4929693;29;20098;-71
2021/06/29 01:31:40;;;;;;;9.43;7.82;;;;;;;22.75;97.36;100560.09;4947768;29;20039;-71
2021/06/29 01:34:06;;;;;;;11.13;8.07;;;;;;;22.67;97.33;100560.75;4989825;23;20035;-73
2021/06/29 01:36:42;;;;;;;9.93;8.30;;;;;;;22.69;97.62;100563.81;4968440;28;20034;-72
2021/06/29 01:39:10;;;;;;;8.65;7.28;;;;;;;22.70;97.45;100568.91;4978543;28;20049;-73
2021/06/29 01:41:36;;;;;;;10.32;7.82;;;;;;;22.63;97.62;100558.13;4968877;28;20058;-73
2021/06/29 01:44:07;;;;;;;10.38;8.70;;;;;;;22.59;97.56;100554.72;4969690;28;20035;-71
2021/06/29 01:46:36;;;;;;;;;;;;;;;22.41;98.12;100555.22;4970693;28;20038;-73
2021/06/29 01:49:02;;;;;;;12.02;8.20;;;;;;;22.53;98.04;100550.94;4967756;28;20380;-73
2021/06/29 01:51:27;;;;;;;12.82;8.30;;;;;;;22.45;98.79;100546.91;4983233;28;20037;-73
2021/06/29 01:53:53;;;;;;;9.05;7.90;;;;;;;22.47;98.64;100544.47;4963301;28;20031;-73
2021/06/29 01:56:26;;;;;;;11.82;8.00;;;;;;;22.42;98.78;100542.25;4981735;28;20037;-73
2021/06/29 01:58:54;;;;;;;11.88;8.80;;;;;;;22.47;98.37;100547.22;4972529;28;20026;-73
2021/06/29 02:01:21;;;;;;;12.23;7.70;;;;;;;22.51;98.28;100541.63;4977012;28;20054;-73
2021/06/29 02:03:47;;;;;;;12.15;8.27;;;;;;;22.47;98.70;100546.44;4973691;28;20039;-71
2021/06/29 02:06:14;;;;;;;10.57;8.20;;;;;;;22.48;98.48;100537.75;4980919;28;20058;-72
2021/06/29 02:08:41;;;;;;;10.90;8.50;;;;;;;22.43;99.02;100530.84;4992502;28;20384;-73
2021/06/29 02:11:07;;;;;;;10.77;7.82;;;;;;;22.48;98.58;100537.75;4966771;28;20427;-72
2021/06/29 02:13:32;;;;;;;10.45;7.70;;;;;;;22.42;98.88;100529.31;4973384;28;20034;-72
2021/06/29 02:16:00;;;;;;;10.45;7.70;;;;;;;22.38;99.26;100525.91;4973097;28;20034;-73
2021/06/29 02:18:26;;;;;;;10.80;7.80;;;;;;;22.35;99.00;100515.03;4977266;28;20109;-73
2021/06/29 02:20:51;;;;;;;10.75;8.07;;;;;;;22.28;99.47;100516.00;4985724;28;20485;-73
2021/06/29 02:23:17;;;;;;;9.00;7.57;;;;;;;22.24;99.29;100523.56;4982911;28;20066;-72
2021/06/29 02:25:43;;;;;;;11.50;7.40;;;;;;;22.22;99.50;100525.25;4970271;28;20034;-73
2021/06/29 02:28:09;;;;;;;11.38;8.07;;;;;;;22.23;99.66;100526.75;4967695;28;20030;-73
2021/06/29 02:30:34;;;;;;;10.30;8.35;;;;;;;22.18;99.45;100519.84;4970977;28;20039;-72
2021/06/29 02:33:00;;;;;;;11.85;8.05;;;;;;;22.16;99.46;100518.75;4956609;28;20045;-73
2021/06/29 02:35:26;;;;;;;9.63;7.80;;;;;;;22.07;99.70;100519.38;4973355;28;20066;-72
2021/06/29 02:37:52;;;;;;;14.65;7.88;;;;;;;22.09;99.69;100513.44;4973015;28;20081;-72
2021/06/29 02:40:17;;;;;;;12.60;7.93;;;;;;;22.02;99.95;100514.44;4972092;28;20037;-73
2021/06/29 02:42:43;;;;;;;12.27;8.05;;;;;;;22.05;99.89;100515.53;4969863;28;20473;-72
2021/06/29 02:45:08;;;;;;;11.25;8.30;;;;;;;22.04;99.77;100508.50;4959383;28;20106;-72
2021/06/29 02:47:36;;;;;;;10.55;8.40;;;;;;;22.02;99.94;100506.22;4973691;28;20039;-72
2021/06/29 02:50:05;;;;;;;12.20;7.93;;;;;;;22.04;100.00;100503.03;4970502;28;20319;-73
2021/06/29 02:52:32;;;;;;;12.30;8.35;;;;;;;22.02;100.00;100503.47;4973527;28;20416;-72
2021/06/29 02:54:58;;;;;;;10.80;8.77;;;;;;;22.05;99.70;100505.31;4971479;28;20039;-73
2021/06/29 02:57:23;;;;;;;13.10;8.38;;;;;;;22.04;100.00;100505.78;4979330;28;20150;-73
2021/06/29 02:59:49;;;;;;;12.10;8.60;;;;;;;22.03;100.00;100499.50;4976656;28;20100;-73
2021/06/29 03:02:14;;;;;;;8.75;7.57;;;;;;;22.04;99.60;100501.06;4973714;28;20381;-74
2021/06/29 03:04:40;;;;;;;10.02;8.35;;;;;;;22.07;99.83;100504.88;4972940;28;20042;-73
2021/06/29 03:07:05;;;;;;;9.25;8.25;;;;;;;22.03;99.93;100502.25;4981050;28;20042;-73
2021/06/29 03:09:31;;;;;;;11.15;8.70;;;;;;;21.98;100.00;100496.53;4970419;28;20035;-73
2021/06/29 03:11:56;;;;;;;9.95;7.90;;;;;;;22.04;99.70;100503.03;4965856;28;20034;-73
2021/06/29 03:14:22;;;;;;;12.13;8.52;;;;;;;21.95;100.00;100497.41;4971169;28;20109;-73
2021/06/29 03:16:47;;;;;;;10.30;7.88;;;;;;;21.98;100.00;100499.28;4969873;28;20064;-73
2021/06/29 03:19:13;;;;;;;12.13;8.52;;;;;;;22.03;99.83;100496.75;4972272;28;20541;-72
2021/06/29 03:21:38;;;;;;;11.55;8.52;;;;;;;22.01;100.00;100493.69;4962408;28;20038;-73
2021/06/29 03:24:04;;;;;;;10.80;7.70;;;;;;;22.00;99.76;100503.13;4972959;28;20042;-73
2021/06/29 03:26:30;;;;;;;10.73;8.25;;;;;;;22.06;99.74;100506.09;4968934;28;20476;-73
2021/06/29 03:28:55;;;;;;;9.85;7.68;;;;;;;22.05;99.84;100516.31;4939599;28;20029;-73
2021/06/29 03:31:21;;;;;;;10.65;8.63;;;;;;;22.02;100.00;100521.91;4963417;28;20035;-73
2021/06/29 03:33:46;;;;;;;9.63;8.25;;;;;;;22.08;99.75;100520.94;4956681;28;20061;-73
2021/06/29 03:36:12;;;;;;;13.27;8.32;;;;;;;22.03;100.00;100531.66;4961784;28;20058;-72
2021/06/29 03:38:38;;;;;;;11.82;8.32;;;;;;;22.09;100.00;100529.91;4962887;28;22528;-72
2021/06/29 03:41:04;;;;;;;9.80;8.27;;;;;;;22.03;100.00;100537.91;4970150;28;20027;-72
2021/06/29 03:43:33;;;;;;;14.02;8.63;;;;;;;22.05;100.00;100535.50;4968518;28;20041;-72
2021/06/29 03:45:59;;;;;;;11.45;8.27;;;;;;;22.19;100.00;100542.56;4968733;28;20481;-72
2021/06/29 03:48:25;;;;;;;12.35;8.25;;;;;;;22.20;100.00;100538.63;4971258;28;20031;-72
2021/06/29 03:50:50;;;;;;;12.38;8.82;;;;;;;22.13;100.00;100539.59;4965803;28;20047;-73
2021/06/29 03:53:16;;;;;;;12.07;8.63;;;;;;;22.18;100.00;100541.78;4963545;28;20092;-72
2021/06/29 03:55:41;;;;;;;13.57;8.75;;;;;;;22.22;100.00;100552.69;4965984;28;20162;-72
2021/06/29 03:58:07;;;;;;;10.35;9.00;;;;;;;22.28;99.90;100548.16;4971189;28;20533;-73
2021/06/29 04:00:32;;;;;;;10.60;8.57;;;;;;;22.29;100.00;100547.75;4968471;28;20557;-73
2021/06/29 04:02:58;;;;;;;13.25;8.50;;;;;;;22.31;100.00;100545.34;4957166;28;20125;-72
2021/06/29 04:05:23;;;;;;;11.65;8.52;;;;;;;22.29;100.00;100546.97;4967558;28;20114;-72
2021/06/29 04:07:49;;;;;;;10.88;9.13;;;;;;;22.29;100.00;100544.22;4970321;28;20027;-72
2021/06/29 04:10:15;;;;;;;11.18;9.40;;;;;;;22.26;100.00;100542.38;4976196;28;20500;-72
2021/06/29 04:12:40;;;;;;;11.93;9.57;;;;;;;22.32;100.00;100537.84;4950318;28;20026;-73
2021/06/29 04:15:08;;;;;;;13.13;9.75;;;;;;;22.30;100.00;100551.25;4978381;28;20066;-72
2021/06/29 04:17:33;;;;;;;12.23;9.70;;;;;;;22.30;100.00;100540.25;4980350;28;20026;-72
2021/06/29 04:19:59;;;;;;;12.10;10.20;;;;;;;22.32;100.00;100538.63;4970896;28;20105;-72
2021/06/29 04:22:25;;;;;;;13.40;10.02;;;;;;;22.37;100.00;100546.34;4970059;28;20101;-72
2021/06/29 04:24:50;;;;;;;13.07;10.25;;;;;;;22.47;100.00;100551.94;4967536;28;20037;-73
2021/06/29 04:27:16;;;;;;;11.93;9.38;;;;;;;22.43;100.00;100552.78;4966604;28;20030;-72
2021/06/29 04:29:42;;;;;;;14.52;10.65;;;;;;;22.53;100.00;100550.94;4941336;28;20038;-72
2021/06/29 04:32:08;;;;;;;13.52;10.82;;;;;;;22.52;100.00;100548.63;4965334;28;20058;-72
2021/06/29 04:34:33;;;;;;;15.52;10.77;;;;;;;22.68;99.65;100560.34;4970369;28;20054;-72
2021/06/29 04:37:01;;;;;;;15.43;11.13;;;;;;;22.78;98.68;100562.00;4969994;28;20027;-73
2021/06/29 04:39:26;;;;;;;12.38;10.45;;;;;;;22.75;99.21;100543.63;4969840;28;20142;-72
2021/06/29 04:41:52;;;;;;;14.77;10.55;;;;;;;22.69;100.00;100545.38;4965860;28;20105;-72
2021/06/29 04:44:18;;;;;;;13.63;10.23;;;;;;;22.79;97.65;100546.25;4952442;28;20038;-72
2021/06/29 04:46:44;;;;;;;14.98;10.10;;;;;;;22.76;98.39;100544.41;4954446;28;20086;-72
2021/06/29 04:49:09;;;;;;;15.35;10.35;;;;;;;22.79;97.73;100540.75;4967963;28;20122;-73
2021/06/29 04:51:35;;;;;;;15.80;10.77;;;;;;;22.84;97.11;100543.72;4969895;28;20043;-72
2021/06/29 04:54:00;;;;;;;13.93;10.38;;;;;;;22.85;97.13;100545.28;4971227;28;20041;-73
2021/06/29 04:56:26;;;;;;;13.15;10.60;;;;;;;22.86;97.17;100546.03;4967822;28;20070;-73
2021/06/29 04:58:57;;;;;;;13.43;9.93;;;;;;;22.86;97.38;100549.53;4960847;28;20058;-72
2021/06/29 05:01:23;;;;;;;15.35;9.70;;;;;;;22.83;97.80;100547.69;4963519;28;20039;-72
2021/06/29 05:03:49;;;;;;;17.98;9.85;;;;;;;22.97;96.80;100543.72;4970577;28;20030;-72
2021/06/29 05:06:18;;;;;;;14.05;10.32;;;;;;;22.95;97.32;100546.13;4958299;28;20039;-72
2021/06/29 05:08:44;;;;;;;14.32;10.02;;;;;;;22.93;97.49;100546.59;4954401;28;20126;-73
2021/06/29 05:11:09;;;;;;;11.48;9.43;;;;;;;23.01;95.96;100538.88;4951277;28;20082;-72
2021/06/29 05:13:35;;;;;;;11.38;8.45;;;;;;;23.05;95.46;100539.53;4967758;28;20453;-73
2021/06/29 05:16:00;;;;;;;13.18;9.23;;;;;;;22.96;96.79;100537.44;4965033;28;20034;-72
2021/06/29 05:18:26;;;;;;;11.43;8.75;;;;;;;22.97;97.64;100533.50;4968594;28;20688;-72
2021/06/29 05:20:54;;;;;;;10.27;8.00;;;;;;;22.93;99.13;100538.34;4969330;28;20404;-72
2021/06/29 05:23:19;;;;;;;9.68;7.60;;;;;;;22.97;98.90;100536.25;4967920;28;20043;-72
2021/06/29 05:25:45;;;;;;;9.45;7.03;;;;;;;22.95;98.98;100546.13;4968046;28;20069;-72
2021/06/29 05:28:10;;;;;;;10.13;7.80;;;;;;;23.00;99.54;100551.84;4957958;28;20077;-73
2021/06/29 05:30:36;;;;;;;10.38;8.10;;;;;;;23.08;98.50;100549.63;4972154;28;20117;-73
2021/06/29 05:33:01;;;;;;;8.55;7.38;;;;;;;23.09;98.28;100551.94;4971966;28;20034;-73
2021/06/29 05:35:27;;;;;;;8.75;7.53;;;;;;;23.18;97.45;100554.78;4966645;28;20041;-73
2021/06/29 05:37:52;;;;;;;8.45;7.55;;;;;;;23.31;96.32;100549.28;4967061;28;21345;-72
2021/06/29 05:40:19;;;;;;;13.25;7.55;;;;;;;23.52;94.33;100551.31;4965996;28;20026;-73
2021/06/29 05:42:44;;;;;;;8.88;7.70;;;;;;;24.02;92.24;100544.84;4970235;28;20047;-73
2021/06/29 05:45:12;;;;;;;9.82;7.10;;;;;;;24.45;88.73;100547.53;4961944;28;20034;-73
2021/06/29 05:47:38;;;;;;;7.57;6.85;;;;;;;24.55;87.48;100551.09;4970693;28;20034;-73
2021/06/29 05:50:05;;;;;;;11.85;7.05;;;;;;;24.50;87.92;100555.22;4970580;28;20035;-73
2021/06/29 05:52:31;;;;;;;8.48;6.90;;;;;;;24.49;88.26;100556.41;4966864;28;20122;-73
2021/06/29 05:54:57;;;;;;;9.35;6.70;;;;;;;24.53;86.68;100557.06;4964588;28;20118;-72
2021/06/29 05:57:23;;;;;;;8.23;6.57;;;;;;;24.61;86.99;100554.78;4970173;28;20042;-72
2021/06/29 05:59:48;;;;;;;8.73;6.32;;;;;;;24.62;87.28;100553.59;4973081;28;20042;-72
2021/06/29 06:02:14;;;;;;;9.00;6.47;;;;;;;24.71;85.28;100554.38;4969874;28;20041;-72
2021/06/29 06:04:39;;;;;;;8.60;6.57;;;;;;;24.68;84.80;100549.75;4968509;28;20122;-73
2021/06/29 06:07:06;;;;;;;7.30;6.20;;;;;;;24.71;84.76;100548.88;4970723;28;20046;-72
2021/06/29 06:09:32;;;;;;;7.50;6.22;;;;;;;24.71;86.03;100548.88;4956338;28;20038;-72
2021/06/29 06:11:58;;;;;;;9.82;6.28;;;;;;;24.89;85.67;100553.72;4969319;28;20069;-72
2021/06/29 06:14:23;;;;;;;7.22;6.15;;;;;;;24.86;85.21;100554.59;4974584;28;20074;-72
2021/06/29 06:16:49;;;;;;;9.10;6.50;;;;;;;24.80;85.92;100545.41;4975050;28;20045;-73
2021/06/29 06:19:14;;;;;;;7.15;6.30;;;;;;;24.77;86.06;100547.09;4970105;28;20042;-73
2021/06/29 06:21:40;;;;;;;8.25;6.22;;;;;;;24.88;85.88;100547.44;4953895;28;20289;-73
2021/06/29 06:24:06;;;;;;;9.93;6.88;;;;;;;24.98;85.04;100551.75;4969472;28;21158;-73
2021/06/29 06:26:32;;;;;;;11.15;7.45;;;;;;;25.04;85.00;100549.94;4970838;28;20037;-73
2021/06/29 06:28:57;;;;;;;7.85;6.72;;;;;;;25.03;84.16;100548.38;4954292;28;20420;-73
2021/06/29 06:31:22;;;;;;;9.80;6.70;;;;;;;24.99;84.50;100546.97;4969102;28;20035;-73
2021/06/29 06:33:48;;;;;;;8.60;5.93;;;;;;;24.86;84.81;100544.34;4967101;28;20039;-73
2021/06/29 06:36:14;;;;;;;8.60;6.22;;;;;;;24.89;86.51;100543.44;4968211;28;20063;-73
2021/06/29 06:38:39;;;;;;;13.25;6.57;;;;;;;24.99;84.65;100547.75;4945826;28;20046;-73
2021/06/29 06:41:05;;;;;;;7.78;6.75;;;;;;;25.24;83.25;100548.75;4951052;28;20041;-73
2021/06/29 06:43:30;;;;;;;7.00;6.20;;;;;;;25.49;82.78;100545.72;4971039;28;20513;-73
2021/06/29 06:45:56;;;;;;;8.07;6.90;;;;;;;25.85;81.68;100540.19;4968169;28;20038;-73
2021/06/29 06:48:21;;;;;;;9.55;5.80;;;;;;;26.13;81.56;100535.41;4967449;28;20027;-73
2021/06/29 06:51:07;;;;;;;7.03;6.30;;;;;;;26.48;79.62;100537.28;4969262;28;20053;-73
2021/06/29 06:53:32;;;;;;;7.03;6.25;;;;;;;26.47;78.34;100541.28;4929053;29;20106;-72
2021/06/29 06:55:58;;;;;;;8.45;6.18;;;;;;;26.51;76.86;100538.34;4939753;28;20540;-72
2021/06/29 06:58:25;;;;;;;12.15;6.70;;;;;;;26.52;76.23;100537.88;4926833;29;20055;-73
2021/06/29 07:00:52;;;;;;;7.03;5.95;;;;;;;26.65;77.22;100535.69;4911589;29;20093;-72
2021/06/29 07:03:17;;;;;;;11.07;5.85;;;;;;;26.75;78.38;100545.50;4928817;29;20924;-73
2021/06/29 07:05:42;;;;;;;7.65;6.07;;;;;;;26.92;76.58;100537.59;4926846;29;20094;-72
2021/06/29 07:08:08;;;;;;;6.10;5.40;;;;;;;26.99;75.68;100544.75;4925356;29;20040;-73
2021/06/29 07:10:33;;;;;;;6.57;5.65;;;;;;;27.06;74.26;100536.13;4928629;29;20213;-73
2021/06/29 07:12:59;;;;;;;11.57;5.90;;;;;;;27.04;73.91;100539.34;4943726;28;20039;-72
2021/06/29 07:15:27;;;;;;;6.07;5.47;;;;;;;26.87;75.79;100543.00;4924600;29;20052;-73
2021/06/29 07:17:54;;;;;;;7.03;5.30;;;;;;;26.89;75.53;100540.53;4945667;28;20063;-73
2021/06/29 07:20:19;;;;;;;6.82;5.80;;;;;;;26.76;76.84;100535.97;4929857;29;20039;-73
2021/06/29 07:22:45;;;;;;;6.18;5.50;;;;;;;26.77;75.78;100537.50;4929279;29;20163;-74
2021/06/29 07:25:11;;;;;;;6.00;5.40;;;;;;;26.61;75.82;100535.09;4940451;28;20043;-73
2021/06/29 07:27:36;;;;;;;5.72;5.03;;;;;;;26.55;77.98;100536.19;4927481;29;20091;-72
2021/06/29 07:30:04;;;;;;;6.45;5.53;;;;;;;26.51;77.97;100536.38;4941069;28;20046;-74
2021/06/29 07:32:30;;;;;;;11.50;5.85;;;;;;;26.45;79.17;100538.22;4969581;28;20122;-72
2021/06/29 07:34:55;;;;;;;9.10;6.13;;;;;;;26.40;79.53;100530.56;4941230;23;20118;-72
2021/06/29 07:37:20;;;;;;;9.80;6.20;;;;;;;26.40;79.56;100538.09;4929527;29;20027;-71
2021/06/29 07:39:46;;;;;;;6.55;5.82;;;;;;;26.44;79.73;100541.47;4926005;29;20035;-71
2021/06/29 07:42:12;;;;;;;9.05;5.97;;;;;;;26.44;79.63;100542.22;4930255;29;20111;-71
2021/06/29 07:44:37;;;;;;;10.02;6.05;;;;;;;26.58;80.30;100538.00;4931374;29;20050;-71
2021/06/29 07:47:03;;;;;;;7.50;6.28;;;;;;;26.87;78.76;100534.69;4926671;29;20051;-72
2021/06/29 07:49:28;;;;;;;7.68;5.40;;;;;;;26.66;79.64;100534.47;4944695;29;20046;-71
2021/06/29 07:51:54;;;;;;;10.90;6.00;;;;;;;26.62;80.67;100522.81;4931713;29;20042;-72
2021/06/29 07:54:20;;;;;;;6.40;5.13;;;;;;;26.69;78.85;100524.47;4929348;29;20081;-72
2021/06/29 07:56:45;;;;;;;7.00;5.70;;;;;;;26.70;79.18;100535.09;4927079;29;20024;-72
2021/06/29 07:59:11;;;;;;;7.15;5.68;;;;;;;26.79;79.66;100535.03;4930344;29;20174;-71
2021/06/29 08:01:37;;;;;;;6.50;5.90;;;;;;;27.01;79.53;100539.50;4929013;29;20513;-72
2021/06/29 08:04:02;;;;;;;6.25;5.65;;;;;;;27.19;78.86;100536.66;4930960;29;20047;-72
2021/06/29 08:06:28;;;;;;;9.05;5.38;;;;;;;27.40;77.36;100532.81;4947034;29;20039;-72
2021/06/29 08:08:53;;;;;;;7.63;5.20;;;;;;;27.56;77.13;100533.16;4931600;29;20490;-72
2021/06/29 08:11:19;;;;;;;7.07;4.75;;;;;;;27.73;75.22;100530.72;4932367;29;20035;-72
2021/06/29 08:13:44;;;;;;;7.15;5.55;;;;;;;27.76;74.82;100526.97;4931132;29;20535;-72
2021/06/29 08:16:10;;;;;;;7.65;5.57;;;;;;;27.78;74.13;100535.56;4927205;29;20031;-71
2021/06/29 08:18:37;;;;;;;6.95;5.18;;;;;;;27.55;75.74;100528.09;4945082;28;20035;-70
2021/06/29 08:21:03;;;;;;;8.32;5.22;;;;;;;27.52;76.06;100529.81;4931239;29;20486;-72
2021/06/29 08:23:29;;;;;;;7.78;5.75;;;;;;;27.45;76.62;100526.63;4927622;29;20043;-72
2021/06/29 08:25:54;;;;;;;9.73;6.20;;;;;;;27.35;77.46;100525.94;4928917;29;20406;-71
2021/06/29 08:28:20;;;;;;;7.45;6.05;;;;;;;27.29;77.54;100529.81;4929575;29;20031;-70
2021/06/29 08:30:46;;;;;;;10.95;5.72;;;;;;;27.19;77.74;100539.41;4925542;29;20036;-72
2021/06/29 08:33:12;;;;;;;7.50;5.78;;;;;;;27.24;77.07;100530.44;4928976;29;20036;-72
2021/06/29 08:35:46;;;;;;;6.70;5.50;;;;;;;27.15;78.39;100544.34;4930491;29;20039;-72
2021/06/29 08:38:12;;;;;;;11.60;6.50;;;;;;;27.16;78.37;100529.31;4942347;28;20094;-72
2021/06/29 08:40:39;;;;;;;8.63;5.50;;;;;;;27.09;79.07;100540.69;4943821;29;20098;-72
2021/06/29 08:43:06;;;;;;;9.20;5.80;;;;;;;27.04;79.56;100535.81;4930268;29;20032;-70
2021/06/29 08:45:32;;;;;;;9.98;6.00;;;;;;;27.15;77.46;100531.28;4929468;29;20074;-72
2021/06/29 08:47:59;;;;;;;6.00;5.40;;;;;;;27.22;77.58;100530.94;4945330;29;20051;-72
2021/06/29 08:50:29;;;;;;;7.43;5.72;;;;;;;27.18;77.53;100529.56;4941883;28;20031;-71
2021/06/29 08:52:56;;;;;;;7.65;5.90;;;;;;;27.09;77.90;100529.63;4931566;29;20031;-72
2021/06/29 08:55:32;;;;;;;6.95;5.30;;;;;;;27.29;77.14;100532.59;4923976;29;20498;-72
2021/06/29 08:57:57;;;;;;;7.18;6.20;;;;;;;27.16;78.16;100537.59;4931744;29;20039;-69
2021/06/29 09:00:23;;;;;;;7.15;6.22;;;;;;;27.16;76.83;100540.38;4927613;29;20046;-72
2021/06/29 09:02:48;;;;;;;7.90;6.40;;;;;;;27.26;75.47;100537.06;4930579;29;20048;-72
2021/06/29 09:05:21;;;;;;;8.50;5.82;;;;;;;27.37;75.34;100542.09;4929606;29;20059;-72
2021/06/29 09:08:07;;;;;;;8.38;6.68;;;;;;;27.46;75.19;100536.47;4928242;29;20930;-71
2021/06/29 09:10:34;;;;;;;8.68;6.25;;;;;;;27.58;74.60;100533.44;4930025;28;20038;-72
2021/06/29 09:13:01;;;;;;;6.65;5.95;;;;;;;27.73;75.20;100539.00;4943451;28;20040;-72
2021/06/29 09:15:37;;;;;;;9.75;6.03;;;;;;;27.83;73.52;100537.69;4932426;28;20091;-72
2021/06/29 09:18:06;;;;;;;10.48;6.22;;;;;;;27.88;73.00;100539.00;4936699;29;20067;-72
2021/06/29 09:21:08;;;;;;;9.77;6.85;;;;;;;27.90;71.62;100542.06;4929043;29;20024;-71
2021/06/29 09:23:36;;;;;;;9.45;6.90;;;;;;;27.99;73.76;100542.03;4942267;29;20043;-72
2021/06/29 09:26:09;;;;;;;9.23;6.93;;;;;;;27.95;74.05;100536.66;4932586;28;20035;-73
2021/06/29 09:28:38;;;;;;;11.32;7.10;;;;;;;27.75;73.19;100536.53;4940088;29;20040;-72
2021/06/29 09:31:05;;;;;;;13.63;6.78;;;;;;;27.61;74.07;100537.25;4940954;29;20039;-71
2021/06/29 09:33:44;;;;;;;7.30;6.53;;;;;;;27.40;75.52;100543.91;4930432;29;20095;-71
2021/06/29 09:36:16;;;;;;;12.55;7.75;;;;;;;27.42;75.95;100550.50;4930259;29;20036;-71
2021/06/29 09:38:44;;;;;;;12.70;7.22;;;;;;;27.39;75.76;100542.38;4938319;29;20043;-75
2021/06/29 09:41:14;;;;;;;7.43;6.18;;;;;;;27.19;76.95;100544.94;4938816;28;20032;-71
2021/06/29 09:43:45;;;;;;;9.77;5.97;;;;;;;27.10;77.81;100536.72;4944111;29;20110;-71
2021/06/29 09:46:12;;;;;;;8.02;6.03;;;;;;;27.01;77.67;100542.28;4937284;28;20044;-71
2021/06/29 09:48:56;;;;;;;8.40;6.45;;;;;;;26.92;77.39;100543.13;4926544;29;20035;-71
2021/06/29 09:51:28;;;;;;;7.30;5.85;;;;;;;26.97;77.52;100552.75;4951169;28;20524;-73
2021/06/29 09:53:59;;;;;;;7.97;6.50;;;;;;;26.90;77.79;100556.66;4939065;29;20106;-71
2021/06/29 09:56:32;;;;;;;8.30;6.70;;;;;;;26.79;77.45;100553.59;4946103;29;20039;-71
2021/06/29 09:58:59;;;;;;;9.75;5.82;;;;;;;26.67;79.23;100555.31;4937385;28;20127;-71
2021/06/29 10:01:28;;;;;;;7.20;6.47;;;;;;;26.64;79.58;100555.50;4934414;29;20039;-71
2021/06/29 10:03:54;;;;;;;8.20;6.10;;;;;;;26.71;78.46;100550.41;4933698;29;20040;-71
2021/06/29 10:06:24;;;;;;;7.53;6.03;;;;;;;26.59;79.05;100543.09;4932229;29;20126;-71
2021/06/29 10:08:52;;;;;;;9.63;6.57;;;;;;;26.49;81.87;100549.88;4932838;29;20043;-71
2021/06/29 10:11:19;;;;;;;8.77;6.40;;;;;;;26.43;85.50;100548.22;4923447;29;20039;-71
2021/06/29 10:14:00;;;;;;;12.25;7.63;;;;;;;26.31;85.97;100554.69;4930766;29;20031;-72
2021/06/29 10:16:34;;;;;;;10.18;7.75;;;;;;;26.09;87.32;100554.91;4925042;29;20050;-71
2021/06/29 10:19:13;;;;;;;12.55;8.50;;;;;;;25.90;89.02;100553.34;4932541;29;20043;-72
2021/06/29 10:21:44;;;;;;;13.90;8.40;;;;;;;25.79;91.79;100558.59;4932699;29;20638;-72
2021/06/29 10:24:10;;;;;;;;;;;;;;;25.43;95.45;100553.06;4934671;29;20494;-72
2021/06/29 10:26:39;;;;;;;11.52;9.25;;;;;;;25.55;97.16;100541.13;4950861;28;19922;-71
2021/06/29 10:29:08;;;;;;;12.93;9.48;;;;;;;25.50;97.34;100536.22;4931591;29;20051;-71
2021/06/29 10:31:36;;;;;;;11.02;9.25;;;;;;;25.51;97.40;100543.28;4942202;29;20028;-71
2021/06/29 10:34:07;;;;;;;14.05;8.88;;;;;;;25.56;94.50;100539.88;4938932;29;20415;-71
2021/06/29 10:36:39;;;;;;;10.15;8.80;;;;;;;25.52;95.65;100534.53;4945371;29;20051;-71
2021/06/29 10:39:07;;;;;;;15.70;10.38;;;;;;;25.49;98.11;100529.16;4935560;29;20047;-71
2021/06/29 10:42:00;;;;;;;14.27;9.77;;;;;;;25.42;99.57;100526.69;4954059;28;20039;-71
2021/06/29 10:44:27;;;;;;;12.18;9.65;;;;;;;25.54;97.42;100517.50;4953589;28;20054;-71
2021/06/29 10:46:55;;;;;;;15.85;9.55;;;;;;;25.45;97.36;100515.53;4935582;29;20079;-71
2021/06/29 10:49:34;;;;;;;12.43;9.18;;;;;;;25.38;96.63;100510.28;4941141;29;20031;-71
2021/06/29 10:52:23;;;;;;;14.57;10.18;;;;;;;25.37;97.81;100517.03;4933251;29;20038;-71
2021/06/29 10:54:51;;;;;;;13.98;9.15;;;;;;;25.30;99.26;100516.56;4931886;29;20099;-71
2021/06/29 10:57:20;;;;;;;13.73;9.88;;;;;;;25.43;97.75;100508.94;4931840;29;20046;-71
2021/06/29 10:59:50;;;;;;;10.80;9.60;;;;;;;25.29;99.30;100512.28;4936246;29;20035;-71
2021/06/29 11:02:36;;;;;;;13.32;9.68;;;;;;;25.17;100.00;100504.91;4934370;29;20028;-71
2021/06/29 11:05:09;;;;;;;11.30;9.85;;;;;;;25.14;100.00;100492.81;4938938;28;20056;-71
2021/06/29 11:07:43;;;;;;;10.85;9.05;;;;;;;25.20;99.66;100492.97;4932864;29;20048;-71
2021/06/29 11:10:29;;;;;;;9.80;8.45;;;;;;;25.13;98.59;100493.25;4933629;29;20027;-71
2021/06/29 11:12:58;;;;;;;15.93;9.20;;;;;;;25.08;100.00;100488.34;4935367;29;20423;-71
2021/06/29 11:15:56;;;;;;;12.25;9.40;;;;;;;25.01;100.00;100479.16;4933042;29;20036;-71
2021/06/29 11:18:34;;;;;;;9.93;8.85;;;;;;;25.05;100.00;100468.75;4926832;29;20048;-71
2021/06/29 11:21:04;;;;;;;21.35;10.65;;;;;;;25.16;100.00;100475.81;4946683;28;20110;-71